Cushing, Maine
Current Conditions -  °F | °C
As of 7:15 PM on Wednesday 26 Nov 2014 (Local Time) from KRKD Reporting Station
Overcast Overcast  
Wind Chill: 24°   Ceiling: 400
Heat Index: 34°   Visibility: 0.75mi
Dew Point: 32°   Wind: 14mph
Humidity: 93%   Direction: 30°NNE
Pressure: 29.94"   Gusts: 23mph
Location:  44.02°N, 69.24°W
Report Text: KRKD 270015Z AUTO 03012G20KT 3/4SM OVC004 01/00 A2994 RMK AO1 P0006
Loading
Personal Weather Stations






























Interactive Weather Map New forecast layout! Learn more

10-Day Weather Forecast

Advertisements
Track Severe Weather on mobile